• Join FlightAware (Why Join?)
  • Login
  • US Flag 
08:39PM EDT


 

Airport Tracker/Info


-or-


 

Live Flight TrackerFlight Track Log ✈ ASQ5007 ✈ 23-Apr-2013 ✈ KSHV - KATL

Flight Track Log - Related Links

Times and Time Zones

All times are in EDT time to prevent confusion due to time zone crossing. See the ASQ5007 flight status page for this flight to view local times or setup timezone preferences in your user account.

Time Position Orientation Groundspeed Altitude Reporting Facility
EDT Latitude Longitude Course Direction KTS MPH feet Rate Location/Type
01:52PM 32.3839 -93.7678 139° Southeast 206 237 4,100  Level Fort Worth Center
01:53PM 32.4081 -93.6583 75° East 263 303 7,500 2,160 Climbing Fort Worth Center
01:54PM 32.4283 -93.5739 74° East 276 318 9,400 1,800 Climbing Fort Worth Center
01:55PM 32.4561 -93.4619 74° East 299 344 11,200 1,680 Climbing Fort Worth Center
01:56PM 32.4822 -93.3600 73° East 340 391 12,800 1,800 Climbing Fort Worth Center
01:57PM 32.5156 -93.2328 73° East 359 413 14,900 1,800 Climbing Fort Worth Center
01:58PM 32.5433 -93.1256 73° East 372 428 16,400 1,440 Climbing Fort Worth Center
01:59PM 32.5708 -93.0158 73° East 377 434 17,800 1,440 Climbing Fort Worth Center
02:00PM 32.6097 -92.8758 72° East 391 450 19,300 1,620 Climbing Fort Worth Center
02:01PM 32.6481 -92.7308 73° East 402 463 21,100 1,620 Climbing Fort Worth Center
02:02PM 32.6789 -92.6058 74° East 402 463 22,600 1,380 Climbing Fort Worth Center
02:03PM 32.6883 -92.4744 85° East 402 463 23,900 1,020 Climbing Fort Worth Center
02:04PM 32.6808 -92.3367 94° East 396 456 24,700 840 Climbing Fort Worth Center
02:06PM 32.6531 -91.9933 95° East 435 501 27,000 720 Climbing Memphis Center
02:07PM 32.6381 -91.8450 97° East 440 506 27,200 540 Climbing Memphis Center
02:08PM 32.6272 -91.6967 95° East 445 512 28,100 840 Climbing Memphis Center
02:09PM 32.6203 -91.5461 93° East 451 519 28,900 420 Climbing Memphis Center
02:10PM 32.6072 -91.3981 96° East 451 519 29,000  Climbing Memphis Center
02:11PM 32.5936 -91.2425 96° East 459 528 29,000  Level Memphis Center
02:12PM 32.5842 -91.0969 94° East 459 528 29,000  Level Memphis Center
02:13PM 32.5703 -90.9514 96° East 452 520 29,000  Level Memphis Center
02:14PM 32.5606 -90.8083 95° East 442 509 29,000  Level Memphis Center
02:15PM 32.5506 -90.6653 95° East 442 509 29,000  Level Memphis Center
02:16PM 32.5361 -90.5200 97° East 442 509 29,000  Level Memphis Center
02:17PM 32.5236 -90.3819 96° East 442 509 29,000  Level Memphis Center
02:18PM 32.5111 -90.2392 96° East 442 509 29,000  Level Memphis Center
02:19PM 32.5006 -90.0961 95° East 437 503 29,000  Level Memphis Center
02:20PM 32.4897 -89.9681 96° East 437 503 29,000  Level Memphis Center
02:21PM 32.4767 -89.8253 96° East 437 503 29,000  Level Memphis Center
02:22PM 32.4614 -89.6853 97° East 437 503 29,000  Level Memphis Center
02:23PM 32.4500 -89.5450 95° East 432 497 29,000  Level Memphis Center
02:24PM 32.4386 -89.4047 95° East 432 497 29,000  Level Memphis Center
02:25PM 32.4250 -89.2622 96° East 427 491 29,000  Level Memphis Center
02:26PM 32.4111 -89.1219 97° East 427 491 29,000  Level Memphis Center
02:27PM 32.3969 -88.9794 97° East 427 491 29,000  Level Memphis Center
02:28PM 32.3828 -88.8394 97° East 427 491 29,000  Level Memphis Center
02:31PM 32.4150 -88.5094 83° East 420 483 29,000  Level Atlanta Center
02:32PM 32.4325 -88.3700 82° East 426 490 29,000  Level Atlanta Center
02:33PM 32.4478 -88.2281 83° East 426 490 29,000  Level Atlanta Center
02:34PM 32.4733 -88.0864 78° East 426 490 29,000  Level Atlanta Center
02:35PM 32.5008 -87.9447 77° East 426 490 29,000  Level Atlanta Center
02:36PM 32.5303 -87.8081 76° East 432 497 29,000  Level Atlanta Center
02:37PM 32.5594 -87.6689 76° East 432 497 29,000  Level Atlanta Center
02:38PM 32.5886 -87.5297 76° East 432 497 29,000  Level Atlanta Center
02:39PM 32.6175 -87.3878 76° East 432 497 29,000  Level Atlanta Center
02:40PM 32.6483 -87.2483 75° East 432 497 29,000  Level Atlanta Center
02:41PM 32.6792 -87.1064 75° East 432 497 29,000  Level Atlanta Center
02:42PM 32.7119 -86.9569 75° East 437 503 29,000  Level Atlanta Center
02:43PM 32.7339 -86.8192 79° East 437 503 29,000  Level Atlanta Center
02:44PM 32.7642 -86.6769 76° East 437 503 29,000  Level Atlanta Center
02:45PM 32.7900 -86.5394 77° East 437 503 29,000  Level Atlanta Center
02:46PM 32.8222 -86.3894 76° East 443 510 29,000  Level Atlanta Center
02:47PM 32.8497 -86.2494 77° East 444 511 29,000  Level Atlanta Center
02:48PM 32.8772 -86.1042 77° East 439 505 29,000 -420 Level Atlanta Center
02:49PM 32.9108 -85.9614 74° East 439 505 28,200 -1,500 Descending Atlanta Center
02:50PM 32.9464 -85.8311 72° East 451 519 26,100 -2,340 Descending Atlanta Center
02:51PM 32.9919 -85.6958 68° East 451 519 23,600 -2,400 Descending Atlanta Center
02:52PM 33.0272 -85.5650 72° East 432 497 21,300 -2,400 Descending Atlanta Center
02:53PM 33.0683 -85.4394 69° East 398 458 18,800 -2,160 Descending Atlanta Center
02:54PM 33.0989 -85.3233 73° East 366 421 17,000 -1,920 Descending Atlanta Center
02:55PM 33.1333 -85.2147 69° East 353 406 15,000 -1,920 Descending Atlanta Center
02:56PM 33.1614 -85.1058 73° East 343 395 13,200 -1,500 Descending Atlanta Center
02:57PM 33.2019 -85.0094 63° Northeast 332 382 12,000 -960 Descending Atlanta Center
02:58PM 33.2483 -84.9431 50° Northeast 306 352 11,300 -960 Descending Atlanta Center
02:59PM 33.3072 -84.8692 46° Northeast 301 346 10,100 -1,620 Descending Atlanta Center
03:00PM 33.3847 -84.8425 16° North 283 326 8,100 -2,040 Descending Atlanta Center
03:01PM 33.4667 -84.8333 North 283 326 6,100 -1,860 Descending Atlanta TRACON
03:02PM 33.5333 -84.8000 23° Northeast 265 305 4,500 -1,140 Descending Atlanta TRACON
03:03PM 33.5667 -84.7500 51° Northeast 225 259 4,000 -300 Descending Atlanta TRACON
03:04PM 33.6000 -84.6833 59° Northeast 222 255 4,000 -60 Level Atlanta TRACON
03:05PM 33.6167 -84.6167 73° East 189 217 3,900 -420 Descending Atlanta TRACON
03:06PM 33.6167 -84.5667 90° East 182 209 3,200 -900 Descending Atlanta TRACON
03:07PM 33.6167 -84.5000 90° East 152 175 2,200 -960 Descending Atlanta TRACON
03:08PM 33.6167 -84.4667 90° East 145 167 1,300 -900 Descending Atlanta TRACON
03:10PM 33.6367 -84.4279 90° East  Level Estimated
03:17PM 33.6367 -84.4279 301° West  Level Estimated